Time;durP1;ratioP1;P1;durP2;ratioP2;P2;SDS_P1;SDS_P2;PMS_P1;PMS_P2;Temp;Humidity;BMP_temperature;BMP_pressure;BME280_temperature;BME280_humidity;BME280_pressure;Samples;Min_cycle;Max_cycle;Signal;HPM_P1;HPM_P2
2023/12/13 00:00:25;;;;;;;1.10;0.50;;;8.70;99.90;;;;;;5068911;28;20189;-71
2023/12/13 00:02:51;;;;;;;0.80;0.40;;;8.70;99.90;;;;;;5069065;28;20765;-71
2023/12/13 00:05:16;;;;;;;1.13;0.40;;;8.70;99.90;;;;;;5068008;28;20223;-71
2023/12/13 00:07:42;;;;;;;2.60;0.40;;;8.70;99.90;;;;;;5069596;28;20295;-71
2023/12/13 00:10:08;;;;;;;1.97;0.33;;;8.70;99.90;;;;;;5069607;28;20180;-70
2023/12/13 00:12:33;;;;;;;1.40;0.40;;;8.70;99.90;;;;;;5069356;28;20254;-70
2023/12/13 00:14:59;;;;;;;3.73;0.53;;;8.70;99.90;;;;;;5069436;28;20827;-71
2023/12/13 00:17:24;;;;;;;0.87;0.50;;;8.70;99.90;;;;;;5068008;28;20231;-72
2023/12/13 00:19:50;;;;;;;1.00;0.50;;;8.60;99.90;;;;;;5069171;28;20179;-72
2023/12/13 00:22:16;;;;;;;2.90;0.73;;;8.60;99.90;;;;;;5069182;28;20187;-73
2023/12/13 00:24:41;;;;;;;1.77;0.50;;;8.70;99.90;;;;;;5066834;28;20215;-72
2023/12/13 00:27:07;;;;;;;1.37;0.50;;;8.70;99.90;;;;;;5050694;28;20219;-72
2023/12/13 00:29:33;;;;;;;6.20;1.10;;;8.60;99.90;;;;;;5068653;28;20176;-72
2023/12/13 00:31:58;;;;;;;0.90;0.47;;;8.60;99.90;;;;;;5068830;28;20179;-72
2023/12/13 00:34:24;;;;;;;2.50;0.50;;;8.60;99.90;;;;;;5068543;28;20584;-72
2023/12/13 00:36:49;;;;;;;4.80;0.73;;;8.60;99.90;;;;;;5066976;28;20299;-71
2023/12/13 00:39:18;;;;;;;1.80;0.60;;;8.50;99.90;;;;;;5068121;28;20229;-71
2023/12/13 00:41:43;;;;;;;0.90;0.70;;;8.60;99.90;;;;;;5066818;28;20233;-71
2023/12/13 00:44:09;;;;;;;1.27;0.47;;;8.60;99.90;;;;;;5066508;28;20472;-72
2023/12/13 00:46:34;;;;;;;5.27;0.80;;;8.60;99.90;;;;;;5066366;28;20209;-71
2023/12/13 00:49:00;;;;;;;3.53;0.70;;;8.60;99.90;;;;;;5067908;28;20191;-71
2023/12/13 00:51:26;;;;;;;4.27;0.70;;;8.50;99.90;;;;;;5067936;28;20287;-71
2023/12/13 00:53:52;;;;;;;1.63;0.50;;;8.50;99.90;;;;;;5068048;28;20657;-71
2023/12/13 00:56:17;;;;;;;2.60;0.50;;;8.60;99.90;;;;;;5067839;28;20570;-71
2023/12/13 00:58:45;;;;;;;5.77;1.23;;;8.50;99.90;;;;;;5066463;28;20557;-74
2023/12/13 01:01:10;;;;;;;2.37;0.70;;;8.50;99.90;;;;;;5049855;28;20188;-72
2023/12/13 01:03:36;;;;;;;1.67;0.50;;;8.40;99.90;;;;;;5067743;28;20527;-71
2023/12/13 01:06:06;;;;;;;1.87;0.80;;;8.50;99.90;;;;;;5066124;28;20693;-72
2023/12/13 01:08:31;;;;;;;2.43;0.90;;;8.50;99.90;;;;;;5068197;28;20220;-71
2023/12/13 01:10:57;;;;;;;1.03;0.63;;;8.50;99.90;;;;;;5066272;28;20495;-71
2023/12/13 01:13:22;;;;;;;3.07;0.80;;;8.40;99.90;;;;;;5066360;28;20234;-72
2023/12/13 01:15:48;;;;;;;5.13;0.87;;;8.40;99.90;;;;;;5066034;28;20184;-71
2023/12/13 01:18:13;;;;;;;7.30;0.70;;;8.40;99.90;;;;;;5067807;28;20677;-71
2023/12/13 01:20:40;;;;;;;0.90;0.60;;;8.40;99.90;;;;;;5067667;28;20269;-71
2023/12/13 01:23:06;;;;;;;3.80;0.67;;;8.40;99.90;;;;;;5066210;28;20190;-71
2023/12/13 01:25:31;;;;;;;4.17;0.57;;;8.40;99.90;;;;;;5067554;28;20477;-71
2023/12/13 01:27:57;;;;;;;4.60;0.70;;;8.40;99.90;;;;;;5068224;28;20285;-71
2023/12/13 01:30:23;;;;;;;2.33;0.70;;;8.40;99.90;;;;;;5067606;28;20611;-72
2023/12/13 01:32:49;;;;;;;6.60;0.60;;;8.40;99.90;;;;;;5067590;28;20562;-72
2023/12/13 01:35:15;;;;;;;2.93;0.67;;;8.40;99.90;;;;;;5066718;28;20549;-71
2023/12/13 01:37:40;;;;;;;3.70;0.93;;;8.40;99.90;;;;;;5071188;28;20207;-72
2023/12/13 01:40:07;;;;;;;2.03;0.63;;;8.30;99.90;;;;;;5069844;28;20215;-71
2023/12/13 01:42:36;;;;;;;5.33;0.83;;;8.30;99.90;;;;;;5070028;28;20185;-71
2023/12/13 01:45:02;;;;;;;3.10;0.63;;;8.40;99.90;;;;;;5071342;28;20494;-71
2023/12/13 01:47:28;;;;;;;2.30;0.50;;;8.30;99.90;;;;;;5071591;28;20503;-71
2023/12/13 01:49:53;;;;;;;2.07;0.50;;;8.20;99.90;;;;;;5071843;28;20891;-72
2023/12/13 01:52:20;;;;;;;4.30;0.80;;;8.00;99.90;;;;;;5070143;28;20183;-72
2023/12/13 01:54:47;;;;;;;4.13;0.90;;;7.90;99.90;;;;;;5071450;28;20208;-72
2023/12/13 01:57:14;;;;;;;1.87;0.60;;;7.90;99.90;;;;;;5070048;28;20572;-72
2023/12/13 01:59:41;;;;;;;4.43;0.63;;;8.20;99.90;;;;;;5070227;28;20951;-72
2023/12/13 02:02:08;;;;;;;2.30;0.77;;;8.30;99.90;;;;;;5071184;28;20421;-72
2023/12/13 02:04:37;;;;;;;2.43;0.87;;;8.30;99.90;;;;;;5071087;28;21023;-73
2023/12/13 02:07:03;;;;;;;5.07;0.83;;;8.30;99.90;;;;;;5070891;28;20434;-72
2023/12/13 02:09:28;;;;;;;3.30;0.60;;;8.30;99.90;;;;;;5069294;28;20456;-72
2023/12/13 02:11:54;;;;;;;3.90;0.60;;;8.40;99.90;;;;;;5070699;28;20186;-72
2023/12/13 02:14:20;;;;;;;3.03;0.60;;;8.30;99.90;;;;;;5070604;28;20558;-73
2023/12/13 02:16:46;;;;;;;3.80;0.60;;;8.40;99.90;;;;;;5069196;28;20636;-71
2023/12/13 02:19:11;;;;;;;1.93;0.73;;;8.40;99.90;;;;;;5069294;28;20796;-72
2023/12/13 02:21:37;;;;;;;2.17;0.70;;;8.30;99.90;;;;;;5070483;28;20190;-72
2023/12/13 02:24:07;;;;;;;5.87;3.27;;;8.20;99.90;;;;;;5068831;28;20246;-72
2023/12/13 02:26:37;;;;;;;5.17;2.50;;;8.10;99.90;;;;;;5068897;28;20203;-71
2023/12/13 02:29:03;;;;;;;3.20;1.10;;;8.00;99.90;;;;;;5070238;28;20422;-71
2023/12/13 02:31:29;;;;;;;2.70;0.70;;;8.00;99.90;;;;;;5070198;28;20429;-71
2023/12/13 02:33:55;;;;;;;2.60;0.60;;;7.90;99.90;;;;;;5070123;28;20180;-71
2023/12/13 02:36:21;;;;;;;2.57;1.00;;;7.90;99.90;;;;;;5069922;28;20494;-72
2023/12/13 02:38:47;;;;;;;2.17;0.70;;;7.90;99.90;;;;;;5070067;28;20430;-70
2023/12/13 02:41:13;;;;;;;4.60;0.73;;;7.90;99.90;;;;;;5068512;28;20421;-72
2023/12/13 02:43:38;;;;;;;1.70;0.60;;;7.80;99.90;;;;;;5069789;28;20207;-72
2023/12/13 02:46:04;;;;;;;2.10;0.40;;;7.70;99.90;;;;;;5068578;28;20666;-72
2023/12/13 02:48:29;;;;;;;4.67;1.23;;;7.50;99.90;;;;;;5051110;28;20556;-71
2023/12/13 02:50:55;;;;;;;2.30;0.60;;;7.60;99.90;;;;;;5070025;28;20193;-71
2023/12/13 02:53:21;;;;;;;1.47;0.67;;;7.70;99.90;;;;;;5068172;28;20653;-72
2023/12/13 02:55:47;;;;;;;1.93;0.77;;;7.80;99.90;;;;;;5067881;28;20708;-72
2023/12/13 02:58:13;;;;;;;1.03;0.50;;;7.80;99.90;;;;;;5069527;28;20430;-71
2023/12/13 03:00:39;;;;;;;3.03;0.60;;;8.10;99.90;;;;;;5069685;28;20206;-72
2023/12/13 03:03:04;;;;;;;5.07;0.93;;;8.10;99.90;;;;;;5069655;28;20425;-71
2023/12/13 03:05:30;;;;;;;12.83;0.70;;;8.00;99.90;;;;;;5067876;28;20269;-72
2023/12/13 03:07:56;;;;;;;2.93;0.50;;;7.90;99.90;;;;;;5069696;28;20207;-72
2023/12/13 03:10:21;;;;;;;2.27;0.50;;;8.00;99.90;;;;;;5069399;28;20610;-72
2023/12/13 03:12:47;;;;;;;1.43;0.53;;;7.90;99.90;;;;;;5069437;28;20190;-72
2023/12/13 03:15:12;;;;;;;1.27;0.40;;;8.20;99.90;;;;;;5069255;28;20191;-72
2023/12/13 03:17:38;;;;;;;1.57;0.70;;;8.10;99.90;;;;;;5067807;28;20205;-71
2023/12/13 03:20:04;;;;;;;3.40;0.60;;;8.10;99.90;;;;;;5069429;28;20186;-71
2023/12/13 03:22:30;;;;;;;1.03;0.40;;;8.10;99.90;;;;;;5069183;28;20213;-72
2023/12/13 03:24:57;;;;;;;2.63;0.50;;;8.00;99.90;;;;;;5050935;28;20502;-72
2023/12/13 03:27:22;;;;;;;2.40;0.50;;;8.00;99.90;;;;;;5069021;28;20299;-72
2023/12/13 03:29:48;;;;;;;1.00;0.40;;;8.00;99.90;;;;;;5069132;28;20458;-72
2023/12/13 03:32:13;;;;;;;2.10;0.60;;;8.10;99.90;;;;;;5069136;28;20176;-72
2023/12/13 03:34:39;;;;;;;2.53;0.67;;;8.10;99.90;;;;;;5069126;28;20232;-72
2023/12/13 03:37:06;;;;;;;3.27;0.70;;;8.00;99.90;;;;;;5068949;28;20623;-71
2023/12/13 03:39:35;;;;;;;2.20;0.50;;;8.10;99.90;;;;;;5069137;28;20198;-71
2023/12/13 03:42:01;;;;;;;2.20;0.70;;;8.00;99.90;;;;;;5069373;28;20477;-71
2023/12/13 03:44:27;;;;;;;4.30;0.50;;;7.90;99.90;;;;;;5069222;28;20466;-72
2023/12/13 03:46:56;;;;;;;1.77;0.60;;;7.90;99.90;;;;;;5068177;28;20444;-71
2023/12/13 03:49:22;;;;;;;1.53;0.50;;;8.00;99.90;;;;;;5069871;28;20191;-71
2023/12/13 03:51:48;;;;;;;3.90;0.73;;;7.90;99.90;;;;;;5067789;28;20421;-72
2023/12/13 03:54:15;;;;;;;1.57;0.50;;;8.00;99.90;;;;;;5067002;28;20535;-73
2023/12/13 03:56:41;;;;;;;1.13;0.50;;;7.80;99.90;;;;;;5068503;28;20602;-72
2023/12/13 03:59:07;;;;;;;10.73;0.80;;;7.80;99.90;;;;;;5068571;28;20491;-72
2023/12/13 04:01:32;;;;;;;3.40;0.50;;;7.70;99.90;;;;;;5068522;28;20893;-72
2023/12/13 04:03:58;;;;;;;1.43;0.60;;;7.80;99.90;;;;;;5067072;28;20648;-72
2023/12/13 04:06:23;;;;;;;1.70;0.60;;;7.90;99.90;;;;;;5068516;28;20232;-72
2023/12/13 04:08:49;;;;;;;2.13;0.50;;;8.00;99.90;;;;;;5067172;28;20565;-72
2023/12/13 04:11:15;;;;;;;2.63;0.57;;;8.00;99.90;;;;;;5068583;28;20197;-73
2023/12/13 04:13:41;;;;;;;2.80;0.70;;;8.00;99.90;;;;;;5068693;28;20187;-72
2023/12/13 04:16:07;;;;;;;1.37;0.40;;;8.10;99.90;;;;;;5068419;28;20187;-72
2023/12/13 04:18:33;;;;;;;1.10;0.40;;;8.10;99.90;;;;;;5067489;28;20422;-71
2023/12/13 04:20:59;;;;;;;6.00;0.57;;;8.20;99.90;;;;;;5068502;28;20882;-72
2023/12/13 04:23:24;;;;;;;4.20;0.40;;;8.20;99.90;;;;;;5050380;28;20437;-73
2023/12/13 04:25:50;;;;;;;1.37;0.40;;;8.30;99.90;;;;;;5069583;28;20190;-72
2023/12/13 04:28:16;;;;;;;1.47;0.50;;;8.30;99.90;;;;;;5068186;28;20211;-73
2023/12/13 04:30:42;;;;;;;2.67;0.90;;;8.30;99.90;;;;;;5050033;28;20193;-72
2023/12/13 04:33:07;;;;;;;1.37;0.40;;;8.30;99.90;;;;;;5050043;28;20194;-72
2023/12/13 04:35:33;;;;;;;0.90;0.40;;;8.30;99.90;;;;;;5068425;28;20534;-72
2023/12/13 04:37:59;;;;;;;3.10;0.73;;;8.20;99.90;;;;;;5068299;28;20207;-72
2023/12/13 04:40:25;;;;;;;2.40;0.43;;;8.20;99.90;;;;;;5068651;28;20642;-72
2023/12/13 04:42:50;;;;;;;1.63;0.50;;;8.30;99.90;;;;;;5068843;28;20211;-72
2023/12/13 04:45:16;;;;;;;1.60;0.50;;;8.20;99.90;;;;;;5068540;28;20294;-73
2023/12/13 04:47:42;;;;;;;2.23;0.70;;;8.20;99.90;;;;;;5068379;28;20207;-72
2023/12/13 04:50:08;;;;;;;1.00;0.50;;;8.20;99.90;;;;;;5068510;28;20828;-72
2023/12/13 04:52:34;;;;;;;0.87;0.50;;;8.20;99.90;;;;;;5067033;28;20455;-71
2023/12/13 04:55:00;;;;;;;0.87;0.40;;;8.20;99.90;;;;;;5068315;28;20797;-71
2023/12/13 04:57:26;;;;;;;1.00;0.57;;;8.30;99.90;;;;;;5068078;28;20237;-73
2023/12/13 04:59:51;;;;;;;4.50;0.50;;;8.30;99.90;;;;;;5068429;28;20189;-72
2023/12/13 05:02:17;;;;;;;2.87;0.50;;;8.30;99.90;;;;;;5068206;28;20422;-73
2023/12/13 05:04:43;;;;;;;0.80;0.40;;;8.30;99.90;;;;;;5068270;28;20215;-73
2023/12/13 05:07:09;;;;;;;0.90;0.50;;;8.20;99.90;;;;;;5067035;28;20218;-71
2023/12/13 05:09:35;;;;;;;1.13;0.40;;;8.20;99.90;;;;;;5066946;28;20250;-72
2023/12/13 05:12:00;;;;;;;1.10;0.53;;;8.30;99.90;;;;;;5070563;28;20186;-72
2023/12/13 05:14:26;;;;;;;2.33;0.40;;;8.40;99.90;;;;;;5071311;28;20432;-72
2023/12/13 05:16:51;;;;;;;0.70;0.40;;;8.40;99.90;;;;;;5052434;28;20211;-72
2023/12/13 05:19:17;;;;;;;1.70;0.50;;;8.40;99.90;;;;;;5070395;28;20216;-73
2023/12/13 05:21:42;;;;;;;0.80;0.40;;;8.40;99.90;;;;;;5068927;28;20286;-72
2023/12/13 05:24:08;;;;;;;2.07;0.87;;;8.30;99.90;;;;;;5052214;28;20712;-73
2023/12/13 05:26:35;;;;;;;1.10;0.40;;;8.30;99.90;;;;;;5070387;28;20214;-73
2023/12/13 05:29:02;;;;;;;0.70;0.40;;;8.30;99.90;;;;;;5069111;28;20417;-73
2023/12/13 05:31:28;;;;;;;0.70;0.43;;;8.30;99.90;;;;;;5068755;28;20425;-72
2023/12/13 05:33:54;;;;;;;1.73;0.60;;;8.30;99.90;;;;;;5068639;28;20775;-73
2023/12/13 05:36:20;;;;;;;2.90;0.70;;;8.30;99.90;;;;;;5070238;28;20437;-72
2023/12/13 05:38:46;;;;;;;1.87;0.60;;;8.30;99.90;;;;;;5070412;28;20188;-72
2023/12/13 05:41:12;;;;;;;0.70;0.40;;;8.20;99.90;;;;;;5070245;28;20184;-73
2023/12/13 05:43:37;;;;;;;2.00;0.40;;;8.20;99.90;;;;;;5068836;28;20935;-73
2023/12/13 05:46:04;;;;;;;0.80;0.50;;;8.20;99.90;;;;;;5069008;28;20470;-72
2023/12/13 05:48:31;;;;;;;0.73;0.40;;;8.20;99.90;;;;;;5068943;28;20191;-70
2023/12/13 05:50:57;;;;;;;1.13;0.40;;;8.20;99.90;;;;;;5070538;28;20421;-73
2023/12/13 05:53:23;;;;;;;5.90;0.93;;;8.20;99.90;;;;;;5069207;28;20788;-72
2023/12/13 05:55:48;;;;;;;0.70;0.50;;;8.10;99.90;;;;;;5068727;28;20633;-72
2023/12/13 05:58:14;;;;;;;3.93;0.50;;;8.10;99.90;;;;;;5070699;28;20215;-73
2023/12/13 06:00:40;;;;;;;1.67;0.50;;;8.20;99.90;;;;;;5070332;28;20727;-73
2023/12/13 06:03:05;;;;;;;1.23;0.50;;;8.20;99.90;;;;;;5069904;28;20657;-72
2023/12/13 06:05:31;;;;;;;1.20;0.57;;;8.30;99.90;;;;;;5069891;28;20268;-72
2023/12/13 06:07:56;;;;;;;3.43;0.73;;;8.20;99.90;;;;;;5068603;28;20204;-73
2023/12/13 06:10:22;;;;;;;2.10;0.67;;;8.10;99.90;;;;;;5067774;28;20187;-72
2023/12/13 06:12:50;;;;;;;1.17;0.40;;;8.10;99.90;;;;;;5068120;28;20182;-72
2023/12/13 06:15:16;;;;;;;9.30;0.90;;;8.10;99.90;;;;;;5067798;28;20218;-73
2023/12/13 06:17:42;;;;;;;1.40;0.60;;;8.10;99.90;;;;;;5069202;28;20958;-72
2023/12/13 06:20:08;;;;;;;9.47;0.77;;;8.10;99.90;;;;;;5069303;28;20193;-73
2023/12/13 06:22:33;;;;;;;0.70;0.37;;;8.10;99.90;;;;;;5068343;28;20330;-73
2023/12/13 06:24:59;;;;;;;2.07;0.50;;;8.10;99.90;;;;;;5067714;28;20548;-73
2023/12/13 06:27:25;;;;;;;2.60;0.80;;;8.20;99.90;;;;;;5068088;28;20234;-72
2023/12/13 06:29:50;;;;;;;1.10;0.50;;;8.10;99.90;;;;;;5069435;28;20240;-72
2023/12/13 06:32:16;;;;;;;1.70;0.50;;;8.10;99.90;;;;;;5069122;28;20188;-72
2023/12/13 06:34:41;;;;;;;7.40;0.77;;;8.10;99.90;;;;;;5067366;28;20720;-73
2023/12/13 06:37:07;;;;;;;1.97;0.70;;;8.10;99.90;;;;;;5067708;28;20257;-72
2023/12/13 06:39:33;;;;;;;1.10;0.70;;;8.00;99.90;;;;;;5067571;28;20187;-72
2023/12/13 06:41:59;;;;;;;1.20;0.57;;;7.90;99.90;;;;;;5067792;28;20428;-72
2023/12/13 06:44:24;;;;;;;1.40;0.70;;;7.80;99.90;;;;;;5068773;28;20260;-72
2023/12/13 06:46:50;;;;;;;2.97;0.90;;;7.80;99.90;;;;;;5051224;28;20210;-72
2023/12/13 06:49:17;;;;;;;0.83;0.57;;;7.80;99.90;;;;;;5068801;28;20427;-73
2023/12/13 06:51:42;;;;;;;4.20;0.60;;;7.80;99.90;;;;;;5068942;28;20178;-73
2023/12/13 06:54:08;;;;;;;1.27;0.60;;;7.80;99.90;;;;;;5069285;28;20425;-73
2023/12/13 06:56:35;;;;;;;1.13;0.70;;;7.90;99.90;;;;;;5067436;28;20264;-73
2023/12/13 06:59:00;;;;;;;4.60;0.63;;;7.80;99.90;;;;;;5069258;28;20458;-73
2023/12/13 07:01:26;;;;;;;2.27;0.73;;;7.90;99.90;;;;;;5067826;28;20425;-72
2023/12/13 07:03:52;;;;;;;3.63;1.00;;;7.80;99.90;;;;;;5069539;28;20744;-71
2023/12/13 07:06:18;;;;;;;2.10;0.93;;;7.80;99.90;;;;;;5069112;28;20206;-71
2023/12/13 07:08:45;;;;;;;1.57;0.67;;;7.80;99.90;;;;;;5067484;28;20430;-72
2023/12/13 07:11:11;;;;;;;7.63;0.83;;;7.80;99.90;;;;;;5069212;28;20325;-72
2023/12/13 07:13:37;;;;;;;3.93;0.90;;;7.70;99.90;;;;;;5068966;28;20527;-71
2023/12/13 07:16:03;;;;;;;2.50;0.70;;;7.70;99.90;;;;;;5069088;28;20567;-72
2023/12/13 07:18:29;;;;;;;2.30;0.70;;;7.70;99.90;;;;;;5067539;28;20175;-72
2023/12/13 07:20:55;;;;;;;5.00;0.90;;;7.70;99.90;;;;;;5069085;28;21022;-73
2023/12/13 07:23:20;;;;;;;7.40;1.27;;;7.60;99.90;;;;;;5068817;28;20206;-73
2023/12/13 07:25:46;;;;;;;2.30;0.70;;;7.60;99.90;;;;;;5067148;28;20583;-71
2023/12/13 07:28:13;;;;;;;3.47;1.03;;;7.50;99.90;;;;;;5067009;28;20207;-72
2023/12/13 07:30:41;;;;;;;2.50;0.97;;;7.50;99.90;;;;;;5068721;28;20179;-72
2023/12/13 07:33:10;;;;;;;5.90;1.10;;;7.60;99.90;;;;;;5068055;28;20414;-72
2023/12/13 07:35:35;;;;;;;2.37;0.60;;;7.50;99.90;;;;;;5068514;28;20888;-72
2023/12/13 07:38:01;;;;;;;3.20;0.90;;;7.50;99.90;;;;;;5068025;28;20532;-73
2023/12/13 07:40:27;;;;;;;2.57;0.70;;;7.50;99.90;;;;;;5068024;28;20207;-70
2023/12/13 07:42:52;;;;;;;5.47;0.93;;;7.40;99.90;;;;;;5066483;28;20426;-70
2023/12/13 07:45:20;;;;;;;4.73;1.17;;;7.40;99.90;;;;;;5067851;28;20226;-71
2023/12/13 07:47:46;;;;;;;3.10;1.00;;;7.40;99.90;;;;;;5066131;28;20211;-73
2023/12/13 07:50:12;;;;;;;3.03;0.93;;;7.40;99.90;;;;;;5067836;28;20540;-71
2023/12/13 07:52:37;;;;;;;3.13;1.00;;;7.40;99.90;;;;;;5066502;28;20417;-72
2023/12/13 07:55:04;;;;;;;4.20;0.93;;;7.40;99.90;;;;;;5067668;28;20296;-72
2023/12/13 07:57:30;;;;;;;4.70;1.03;;;7.40;99.90;;;;;;5066351;28;20306;-72
2023/12/13 07:59:55;;;;;;;2.10;1.00;;;7.50;99.90;;;;;;5068031;28;20457;-72
2023/12/13 08:02:22;;;;;;;3.10;1.07;;;7.60;99.90;;;;;;5068183;28;20198;-72
2023/12/13 08:04:48;;;;;;;4.17;0.97;;;7.60;99.90;;;;;;5066538;28;20209;-71
2023/12/13 08:07:15;;;;;;;3.37;1.00;;;7.60;99.90;;;;;;5068029;28;20469;-71
2023/12/13 08:09:40;;;;;;;2.37;1.10;;;7.60;99.90;;;;;;5066754;28;20560;-73
2023/12/13 08:12:06;;;;;;;1.90;1.00;;;7.60;99.90;;;;;;5067918;28;20512;-72
2023/12/13 08:14:33;;;;;;;3.53;0.90;;;7.60;99.90;;;;;;5066396;28;20197;-73
2023/12/13 08:17:02;;;;;;;1.07;0.70;;;7.60;99.90;;;;;;5068446;28;20474;-72
2023/12/13 08:19:27;;;;;;;3.63;0.70;;;7.60;99.90;;;;;;5068228;28;20417;-72
2023/12/13 08:21:53;;;;;;;5.30;1.30;;;7.60;99.90;;;;;;5067457;28;20553;-72
2023/12/13 08:24:18;;;;;;;6.90;1.13;;;7.60;99.90;;;;;;5067211;28;20306;-72
2023/12/13 08:26:45;;;;;;;17.77;10.50;;;7.60;99.90;;;;;;5067089;28;20199;-72
2023/12/13 08:29:11;;;;;;;5.00;2.90;;;7.60;99.90;;;;;;5067374;28;20187;-71
2023/12/13 08:31:36;;;;;;;5.67;1.30;;;7.60;99.90;;;;;;5065534;28;20422;-72
2023/12/13 08:34:02;;;;;;;5.03;1.37;;;7.60;99.90;;;;;;5067490;28;21011;-71
2023/12/13 08:36:27;;;;;;;3.00;1.00;;;7.50;99.90;;;;;;5048833;28;20215;-72
2023/12/13 08:38:54;;;;;;;6.20;1.30;;;7.60;99.90;;;;;;5065745;28;20273;-73
2023/12/13 08:41:19;;;;;;;3.17;0.90;;;7.60;99.90;;;;;;5065261;28;20230;-72
2023/12/13 08:43:45;;;;;;;2.70;0.90;;;7.70;99.90;;;;;;5066779;28;20462;-71
2023/12/13 08:46:11;;;;;;;3.27;1.50;;;7.70;99.90;;;;;;5069521;28;20650;-72
2023/12/13 08:48:37;;;;;;;2.43;1.10;;;7.70;99.90;;;;;;5071075;28;20221;-72
2023/12/13 08:51:03;;;;;;;3.10;0.90;;;7.70;99.90;;;;;;5052856;28;20425;-72
2023/12/13 08:53:28;;;;;;;1.30;0.70;;;7.70;99.90;;;;;;5071469;28;20672;-71
2023/12/13 08:55:54;;;;;;;1.70;1.00;;;7.60;99.90;;;;;;5070952;28;20746;-71
2023/12/13 08:58:20;;;;;;;4.17;0.80;;;7.60;99.90;;;;;;5071212;28;20183;-71
2023/12/13 09:00:45;;;;;;;1.53;1.10;;;7.70;99.90;;;;;;5071145;28;20183;-72
2023/12/13 09:03:11;;;;;;;3.13;1.37;;;7.60;99.90;;;;;;5069488;28;20222;-71
2023/12/13 09:05:37;;;;;;;5.43;2.00;;;7.60;99.90;;;;;;5052374;28;20302;-71
2023/12/13 09:08:04;;;;;;;5.00;0.80;;;7.60;99.90;;;;;;5052712;28;20294;-72
2023/12/13 09:10:29;;;;;;;2.37;0.70;;;7.70;99.90;;;;;;5069266;28;20528;-72
2023/12/13 09:12:55;;;;;;;1.57;0.77;;;7.70;99.90;;;;;;5069044;28;21310;-72
2023/12/13 09:15:21;;;;;;;2.40;0.80;;;7.70;99.90;;;;;;5070592;28;20246;-73
2023/12/13 09:17:47;;;;;;;5.17;1.30;;;7.70;99.90;;;;;;5070733;28;20233;-72
2023/12/13 09:20:14;;;;;;;3.17;0.70;;;7.70;99.90;;;;;;5070571;28;20428;-72
2023/12/13 09:22:43;;;;;;;3.13;0.73;;;7.70;99.90;;;;;;5071451;28;20467;-72
2023/12/13 09:25:10;;;;;;;3.87;0.93;;;7.70;99.90;;;;;;5070471;28;20461;-72
2023/12/13 09:27:36;;;;;;;2.03;0.80;;;7.70;99.90;;;;;;5070478;28;20436;-72
2023/12/13 09:30:02;;;;;;;3.13;0.73;;;7.80;99.90;;;;;;5070540;28;20417;-72
2023/12/13 09:32:28;;;;;;;4.83;0.70;;;7.80;99.90;;;;;;5068829;28;20205;-73
2023/12/13 09:34:55;;;;;;;2.17;1.00;;;7.90;99.90;;;;;;5069103;28;20444;-72
2023/12/13 09:37:21;;;;;;;3.53;0.80;;;7.90;99.90;;;;;;5070501;28;20234;-72
2023/12/13 09:39:46;;;;;;;5.17;1.10;;;8.10;99.90;;;;;;5070164;28;20461;-72
2023/12/13 09:42:13;;;;;;;4.17;1.20;;;8.20;99.90;;;;;;5068993;28;20203;-71
2023/12/13 09:44:40;;;;;;;1.10;0.63;;;8.10;99.90;;;;;;5068551;28;20619;-71
2023/12/13 09:47:06;;;;;;;1.43;1.00;;;8.20;99.90;;;;;;5070076;28;20430;-71
2023/12/13 09:49:34;;;;;;;2.37;0.83;;;8.20;99.90;;;;;;5068694;28;20432;-71
2023/12/13 09:52:06;;;;;;;5.37;0.93;;;8.20;99.90;;;;;;5068490;28;20425;-72
2023/12/13 09:54:32;;;;;;;1.27;0.67;;;8.20;99.90;;;;;;5068526;28;20480;-72
2023/12/13 09:56:57;;;;;;;3.77;1.37;;;8.30;99.90;;;;;;5069931;28;20474;-72
2023/12/13 09:59:24;;;;;;;0.87;0.70;;;8.40;99.90;;;;;;5070249;28;20983;-72
2023/12/13 10:01:50;;;;;;;1.53;0.80;;;8.40;99.90;;;;;;5070195;28;20190;-73
2023/12/13 10:04:15;;;;;;;3.77;1.00;;;8.50;99.90;;;;;;5070161;28;20453;-72
2023/12/13 10:06:41;;;;;;;1.77;0.80;;;8.40;99.90;;;;;;5070113;28;20208;-72
2023/12/13 10:09:07;;;;;;;0.80;0.57;;;8.40;99.90;;;;;;5070085;28;20221;-72
2023/12/13 10:11:34;;;;;;;1.10;0.60;;;8.50;99.90;;;;;;5069939;28;20464;-70
2023/12/13 10:13:59;;;;;;;1.47;0.93;;;8.50;99.90;;;;;;5069646;28;20942;-73
2023/12/13 10:16:28;;;;;;;1.27;0.60;;;8.60;99.90;;;;;;5069736;28;20483;-73
2023/12/13 10:18:54;;;;;;;4.33;0.80;;;8.70;99.90;;;;;;5051844;28;20673;-72
2023/12/13 10:21:20;;;;;;;3.37;1.00;;;8.70;99.90;;;;;;5069171;28;20460;-72
2023/12/13 10:23:45;;;;;;;1.47;1.10;;;8.70;99.90;;;;;;5068954;28;20990;-72
2023/12/13 10:26:12;;;;;;;2.07;1.03;;;8.80;99.90;;;;;;5068917;28;20657;-73
2023/12/13 10:28:37;;;;;;;4.27;0.77;;;8.60;99.90;;;;;;5068990;28;20175;-72
2023/12/13 10:31:03;;;;;;;0.80;0.60;;;8.60;99.90;;;;;;5069127;28;20463;-72
2023/12/13 10:33:30;;;;;;;2.20;0.60;;;8.60;99.90;;;;;;5068922;28;20231;-72
2023/12/13 10:35:58;;;;;;;1.30;0.67;;;8.40;99.90;;;;;;5067186;28;20445;-72
2023/12/13 10:38:26;;;;;;;1.87;0.60;;;8.40;99.90;;;;;;5068953;28;20418;-72
2023/12/13 10:40:52;;;;;;;1.80;0.63;;;8.40;99.90;;;;;;5068646;28;20422;-71
2023/12/13 10:43:19;;;;;;;1.13;0.60;;;8.20;99.90;;;;;;5068632;28;20484;-73
2023/12/13 10:46:04;;;;;;;2.40;0.60;;;8.00;99.90;;;;;;5068507;28;20464;-72
2023/12/13 10:48:37;;;;;;;1.83;0.70;;;8.00;99.90;;;;;;5068723;28;20527;-72
2023/12/13 10:51:03;;;;;;;0.60;0.40;;;8.20;99.90;;;;;;5068906;28;20414;-72
2023/12/13 10:53:33;;;;;;;0.80;0.50;;;8.60;99.90;;;;;;5067037;28;20794;-72
2023/12/13 10:56:02;;;;;;;2.40;0.50;;;9.20;99.90;;;;;;5066881;28;20441;-71
2023/12/13 10:58:28;;;;;;;1.20;0.63;;;9.10;99.90;;;;;;5067017;28;20421;-71
2023/12/13 11:00:56;;;;;;;1.40;0.50;;;9.10;99.90;;;;;;5068203;28;20759;-73
2023/12/13 11:03:34;;;;;;;1.10;0.60;;;9.20;99.90;;;;;;5066765;28;20424;-72
2023/12/13 11:06:11;;;;;;;1.33;0.40;;;10.20;99.90;;;;;;5068378;28;21008;-72
2023/12/13 11:08:41;;;;;;;0.70;0.40;;;10.70;99.90;;;;;;5067527;28;20994;-72
2023/12/13 11:11:09;;;;;;;1.53;0.70;;;10.70;99.90;;;;;;5068170;28;20421;-72
2023/12/13 11:13:45;;;;;;;0.70;0.40;;;10.60;99.90;;;;;;5068461;28;20904;-72
2023/12/13 11:16:17;;;;;;;0.70;0.40;;;10.70;99.90;;;;;;5067964;28;20420;-72
2023/12/13 11:18:45;;;;;;;0.93;0.70;;;10.80;99.90;;;;;;5067946;28;20501;-72
2023/12/13 11:21:13;;;;;;;0.90;0.70;;;10.70;99.90;;;;;;5067950;28;20428;-71
2023/12/13 11:23:41;;;;;;;0.90;0.60;;;10.60;99.90;;;;;;5066136;28;20515;-71
2023/12/13 11:26:15;;;;;;;0.70;0.40;;;10.30;99.90;;;;;;5067819;28;20418;-72
2023/12/13 11:28:51;;;;;;;1.00;0.70;;;10.00;99.90;;;;;;5068483;28;20417;-71
2023/12/13 11:31:22;;;;;;;0.80;0.50;;;10.00;99.90;;;;;;5066913;28;20504;-71
2023/12/13 11:33:49;;;;;;;0.60;0.30;;;9.90;99.90;;;;;;5066672;28;20416;-71
2023/12/13 11:36:19;;;;;;;0.70;0.37;;;9.70;99.90;;;;;;5066885;28;20445;-72
2023/12/13 11:38:44;;;;;;;0.70;0.40;;;9.50;99.90;;;;;;5068381;28;20417;-71
2023/12/13 11:41:10;;;;;;;1.07;0.50;;;9.60;99.90;;;;;;5050202;28;20444;-72
2023/12/13 11:43:36;;;;;;;3.27;0.60;;;9.60;99.90;;;;;;5068330;28;20180;-71
2023/12/13 11:46:01;;;;;;;0.70;0.40;;;9.50;99.90;;;;;;5066753;28;20221;-70
2023/12/13 11:48:27;;;;;;;0.90;0.40;;;9.50;99.90;;;;;;5068119;28;20187;-71
2023/12/13 11:50:53;;;;;;;0.83;0.40;;;9.40;99.90;;;;;;5068125;28;20189;-73
2023/12/13 11:53:19;;;;;;;1.17;0.50;;;9.30;99.90;;;;;;5049851;28;20197;-72
2023/12/13 11:55:44;;;;;;;1.83;0.50;;;9.20;99.90;;;;;;5067459;28;20445;-72
2023/12/13 11:58:10;;;;;;;2.40;0.70;;;9.30;99.90;;;;;;5049239;28;20253;-72
2023/12/13 12:00:35;;;;;;;0.73;0.40;;;9.30;99.90;;;;;;5049391;28;20683;-73
2023/12/13 12:03:02;;;;;;;0.70;0.40;;;9.20;99.90;;;;;;5067459;28;20673;-71
2023/12/13 12:05:27;;;;;;;0.90;0.50;;;9.20;99.90;;;;;;5065766;28;20215;-72
2023/12/13 12:08:01;;;;;;;0.83;0.40;;;9.10;99.90;;;;;;5067087;28;20845;-72
2023/12/13 12:10:28;;;;;;;1.77;0.50;;;9.00;99.90;;;;;;5065791;28;20991;-73
2023/12/13 12:12:54;;;;;;;0.80;0.40;;;9.00;99.90;;;;;;5067505;28;20432;-72
2023/12/13 12:15:20;;;;;;;2.10;0.50;;;9.00;99.90;;;;;;5049122;28;20430;-72
2023/12/13 12:17:47;;;;;;;1.43;0.50;;;9.00;99.90;;;;;;5066051;28;20220;-71
2023/12/13 12:20:14;;;;;;;0.97;0.40;;;9.00;99.90;;;;;;5067343;28;20431;-72
2023/12/13 12:22:39;;;;;;;2.10;0.80;;;9.20;99.90;;;;;;5066964;28;20422;-73
2023/12/13 12:25:05;;;;;;;2.20;0.60;;;9.30;99.90;;;;;;5066857;28;20964;-72
2023/12/13 12:27:31;;;;;;;0.90;0.50;;;9.40;99.90;;;;;;5067240;28;20602;-72
2023/12/13 12:29:57;;;;;;;1.50;0.60;;;9.60;99.90;;;;;;5065429;28;20427;-73
2023/12/13 12:32:23;;;;;;;0.80;0.40;;;9.60;99.90;;;;;;5065192;28;20179;-72
2023/12/13 12:34:48;;;;;;;1.00;0.40;;;9.50;99.90;;;;;;5066710;28;20194;-72
2023/12/13 12:37:17;;;;;;;1.70;0.60;;;9.50;99.90;;;;;;5066486;28;20474;-72
2023/12/13 12:39:43;;;;;;;2.33;0.50;;;9.50;99.90;;;;;;5065292;28;20590;-72
2023/12/13 12:42:09;;;;;;;0.70;0.50;;;9.50;99.90;;;;;;5066753;28;20426;-72
2023/12/13 12:44:35;;;;;;;0.83;0.50;;;9.50;99.90;;;;;;5065211;28;21140;-72
2023/12/13 12:47:01;;;;;;;0.90;0.50;;;9.40;99.90;;;;;;5066565;28;20207;-72
2023/12/13 12:49:27;;;;;;;0.70;0.40;;;9.30;99.90;;;;;;5065254;28;20752;-72
2023/12/13 12:51:53;;;;;;;0.90;0.53;;;9.40;99.90;;;;;;5066378;28;20508;-72